sensor_id;sensor_type;location;lat;lon;timestamp;P1;durP1;ratioP1;P2;durP2;ratioP2
51499;SDS011;39101;53.478;6.158;2023-08-20T00:00:27;11.00;;;3.17;;
51499;SDS011;39101;53.478;6.158;2023-08-20T00:02:56;15.25;;;3.60;;
51499;SDS011;39101;53.478;6.158;2023-08-20T00:05:37;12.38;;;2.83;;
51499;SDS011;39101;53.478;6.158;2023-08-20T00:08:04;9.30;;;2.60;;
51499;SDS011;39101;53.478;6.158;2023-08-20T00:10:30;17.70;;;3.33;;
51499;SDS011;39101;53.478;6.158;2023-08-20T00:12:56;11.85;;;3.33;;
51499;SDS011;39101;53.478;6.158;2023-08-20T00:15:22;18.52;;;3.67;;
51499;SDS011;39101;53.478;6.158;2023-08-20T00:17:51;9.85;;;3.35;;
51499;SDS011;39101;53.478;6.158;2023-08-20T00:20:18;12.32;;;4.15;;
51499;SDS011;39101;53.478;6.158;2023-08-20T00:22:44;10.07;;;3.25;;
51499;SDS011;39101;53.478;6.158;2023-08-20T00:25:11;15.05;;;3.50;;
51499;SDS011;39101;53.478;6.158;2023-08-20T00:30:06;8.68;;;2.97;;
51499;SDS011;39101;53.478;6.158;2023-08-20T00:32:33;14.80;;;3.75;;
51499;SDS011;39101;53.478;6.158;2023-08-20T00:34:59;10.13;;;3.50;;
51499;SDS011;39101;53.478;6.158;2023-08-20T00:37:25;14.38;;;4.00;;
51499;SDS011;39101;53.478;6.158;2023-08-20T00:39:51;15.82;;;4.95;;
51499;SDS011;39101;53.478;6.158;2023-08-20T00:42:16;10.90;;;3.47;;
51499;SDS011;39101;53.478;6.158;2023-08-20T00:44:42;12.32;;;3.80;;
51499;SDS011;39101;53.478;6.158;2023-08-20T00:47:11;12.80;;;4.15;;
51499;SDS011;39101;53.478;6.158;2023-08-20T00:49:38;10.80;;;3.60;;
51499;SDS011;39101;53.478;6.158;2023-08-20T00:52:06;11.52;;;3.97;;
51499;SDS011;39101;53.478;6.158;2023-08-20T00:54:34;9.07;;;3.28;;
51499;SDS011;39101;53.478;6.158;2023-08-20T00:57:00;12.95;;;4.30;;
51499;SDS011;39101;53.478;6.158;2023-08-20T00:59:27;9.18;;;3.20;;
51499;SDS011;39101;53.478;6.158;2023-08-20T01:01:54;11.95;;;3.22;;
51499;SDS011;39101;53.478;6.158;2023-08-20T01:04:20;9.40;;;3.80;;
51499;SDS011;39101;53.478;6.158;2023-08-20T01:06:48;13.18;;;3.47;;
51499;SDS011;39101;53.478;6.158;2023-08-20T01:12:00;15.20;;;4.47;;
51499;SDS011;39101;53.478;6.158;2023-08-20T01:14:28;13.48;;;4.00;;
51499;SDS011;39101;53.478;6.158;2023-08-20T01:16:54;9.90;;;3.70;;
51499;SDS011;39101;53.478;6.158;2023-08-20T01:19:21;14.43;;;4.60;;
51499;SDS011;39101;53.478;6.158;2023-08-20T01:27:51;15.90;;;4.57;;
51499;SDS011;39101;53.478;6.158;2023-08-20T01:30:24;11.73;;;4.40;;
51499;SDS011;39101;53.478;6.158;2023-08-20T01:32:50;11.45;;;4.65;;
51499;SDS011;39101;53.478;6.158;2023-08-20T01:35:18;11.75;;;4.55;;
51499;SDS011;39101;53.478;6.158;2023-08-20T01:37:44;13.95;;;4.40;;
51499;SDS011;39101;53.478;6.158;2023-08-20T01:40:10;17.10;;;5.55;;
51499;SDS011;39101;53.478;6.158;2023-08-20T01:42:36;14.02;;;5.43;;
51499;SDS011;39101;53.478;6.158;2023-08-20T01:45:03;15.38;;;5.45;;
51499;SDS011;39101;53.478;6.158;2023-08-20T01:47:30;13.45;;;4.93;;
51499;SDS011;39101;53.478;6.158;2023-08-20T01:49:56;16.35;;;5.18;;
51499;SDS011;39101;53.478;6.158;2023-08-20T01:52:22;12.20;;;5.28;;
51499;SDS011;39101;53.478;6.158;2023-08-20T01:54:48;12.80;;;4.90;;
51499;SDS011;39101;53.478;6.158;2023-08-20T01:57:14;12.50;;;4.88;;
51499;SDS011;39101;53.478;6.158;2023-08-20T01:59:40;17.67;;;6.38;;
51499;SDS011;39101;53.478;6.158;2023-08-20T02:02:06;10.82;;;4.75;;
51499;SDS011;39101;53.478;6.158;2023-08-20T02:04:32;11.15;;;4.55;;
51499;SDS011;39101;53.478;6.158;2023-08-20T02:06:58;10.18;;;4.80;;
51499;SDS011;39101;53.478;6.158;2023-08-20T02:09:24;13.70;;;5.20;;
51499;SDS011;39101;53.478;6.158;2023-08-20T02:11:50;12.25;;;5.55;;
51499;SDS011;39101;53.478;6.158;2023-08-20T02:14:16;14.35;;;5.28;;
51499;SDS011;39101;53.478;6.158;2023-08-20T02:16:42;12.68;;;5.35;;
51499;SDS011;39101;53.478;6.158;2023-08-20T02:19:08;15.73;;;4.97;;
51499;SDS011;39101;53.478;6.158;2023-08-20T02:21:33;15.13;;;4.88;;
51499;SDS011;39101;53.478;6.158;2023-08-20T02:23:59;14.75;;;5.53;;
51499;SDS011;39101;53.478;6.158;2023-08-20T02:26:25;10.68;;;4.97;;
51499;SDS011;39101;53.478;6.158;2023-08-20T02:28:51;13.75;;;5.20;;
51499;SDS011;39101;53.478;6.158;2023-08-20T02:31:17;15.13;;;4.75;;
51499;SDS011;39101;53.478;6.158;2023-08-20T02:33:42;14.77;;;5.05;;
51499;SDS011;39101;53.478;6.158;2023-08-20T02:36:08;15.43;;;5.75;;
51499;SDS011;39101;53.478;6.158;2023-08-20T02:38:34;14.75;;;5.35;;
51499;SDS011;39101;53.478;6.158;2023-08-20T02:41:00;10.50;;;5.18;;
51499;SDS011;39101;53.478;6.158;2023-08-20T02:43:28;19.45;;;5.35;;
51499;SDS011;39101;53.478;6.158;2023-08-20T02:45:54;14.05;;;5.43;;
51499;SDS011;39101;53.478;6.158;2023-08-20T02:48:20;12.23;;;5.25;;
51499;SDS011;39101;53.478;6.158;2023-08-20T02:50:46;14.20;;;5.30;;
51499;SDS011;39101;53.478;6.158;2023-08-20T02:53:11;12.40;;;5.13;;
51499;SDS011;39101;53.478;6.158;2023-08-20T02:55:37;13.82;;;6.05;;
51499;SDS011;39101;53.478;6.158;2023-08-20T02:58:03;13.40;;;5.72;;
51499;SDS011;39101;53.478;6.158;2023-08-20T03:00:30;10.50;;;5.18;;
51499;SDS011;39101;53.478;6.158;2023-08-20T03:02:55;14.75;;;6.03;;
51499;SDS011;39101;53.478;6.158;2023-08-20T03:05:22;15.38;;;6.25;;
51499;SDS011;39101;53.478;6.158;2023-08-20T03:07:47;11.88;;;5.32;;
51499;SDS011;39101;53.478;6.158;2023-08-20T03:10:14;11.90;;;5.60;;
51499;SDS011;39101;53.478;6.158;2023-08-20T03:12:39;13.43;;;5.38;;
51499;SDS011;39101;53.478;6.158;2023-08-20T03:15:06;12.70;;;6.10;;
51499;SDS011;39101;53.478;6.158;2023-08-20T03:17:32;11.02;;;5.32;;
51499;SDS011;39101;53.478;6.158;2023-08-20T03:19:58;10.73;;;5.68;;
51499;SDS011;39101;53.478;6.158;2023-08-20T03:22:25;13.38;;;6.50;;
51499;SDS011;39101;53.478;6.158;2023-08-20T03:24:52;12.65;;;5.68;;
51499;SDS011;39101;53.478;6.158;2023-08-20T03:27:18;13.93;;;5.60;;
51499;SDS011;39101;53.478;6.158;2023-08-20T03:29:44;11.27;;;5.38;;
51499;SDS011;39101;53.478;6.158;2023-08-20T03:32:11;18.05;;;6.40;;
51499;SDS011;39101;53.478;6.158;2023-08-20T03:34:36;11.57;;;5.80;;
51499;SDS011;39101;53.478;6.158;2023-08-20T03:37:03;11.13;;;5.60;;
51499;SDS011;39101;53.478;6.158;2023-08-20T03:39:29;17.15;;;5.30;;
51499;SDS011;39101;53.478;6.158;2023-08-20T03:41:56;13.05;;;5.80;;
51499;SDS011;39101;53.478;6.158;2023-08-20T03:44:22;10.82;;;5.47;;
51499;SDS011;39101;53.478;6.158;2023-08-20T03:46:47;8.60;;;5.55;;
51499;SDS011;39101;53.478;6.158;2023-08-20T03:49:13;13.95;;;5.90;;
51499;SDS011;39101;53.478;6.158;2023-08-20T03:51:39;10.25;;;6.13;;
51499;SDS011;39101;53.478;6.158;2023-08-20T03:54:06;11.55;;;5.97;;
51499;SDS011;39101;53.478;6.158;2023-08-20T03:56:31;16.33;;;6.20;;
51499;SDS011;39101;53.478;6.158;2023-08-20T03:58:57;11.75;;;6.40;;
51499;SDS011;39101;53.478;6.158;2023-08-20T04:01:22;13.25;;;6.00;;
51499;SDS011;39101;53.478;6.158;2023-08-20T04:03:48;12.13;;;6.50;;
51499;SDS011;39101;53.478;6.158;2023-08-20T04:06:14;17.73;;;6.28;;
51499;SDS011;39101;53.478;6.158;2023-08-20T04:08:40;13.68;;;6.80;;
51499;SDS011;39101;53.478;6.158;2023-08-20T04:11:06;13.05;;;6.85;;
51499;SDS011;39101;53.478;6.158;2023-08-20T04:13:32;18.30;;;7.07;;
51499;SDS011;39101;53.478;6.158;2023-08-20T04:15:58;13.50;;;6.78;;
51499;SDS011;39101;53.478;6.158;2023-08-20T04:18:23;16.27;;;6.38;;
51499;SDS011;39101;53.478;6.158;2023-08-20T04:20:50;16.48;;;6.32;;
51499;SDS011;39101;53.478;6.158;2023-08-20T04:23:17;13.65;;;6.15;;
51499;SDS011;39101;53.478;6.158;2023-08-20T04:25:44;15.27;;;6.40;;
51499;SDS011;39101;53.478;6.158;2023-08-20T04:28:10;17.60;;;7.32;;
51499;SDS011;39101;53.478;6.158;2023-08-20T04:30:36;15.73;;;6.93;;
51499;SDS011;39101;53.478;6.158;2023-08-20T04:33:02;16.40;;;7.07;;
51499;SDS011;39101;53.478;6.158;2023-08-20T04:35:28;11.55;;;6.82;;
51499;SDS011;39101;53.478;6.158;2023-08-20T04:37:54;19.45;;;7.05;;
51499;SDS011;39101;53.478;6.158;2023-08-20T04:40:20;12.05;;;6.43;;
51499;SDS011;39101;53.478;6.158;2023-08-20T04:42:45;15.35;;;7.55;;
51499;SDS011;39101;53.478;6.158;2023-08-20T04:45:11;14.25;;;7.47;;
51499;SDS011;39101;53.478;6.158;2023-08-20T04:47:37;18.58;;;7.65;;
51499;SDS011;39101;53.478;6.158;2023-08-20T04:50:03;15.18;;;7.25;;
51499;SDS011;39101;53.478;6.158;2023-08-20T04:52:32;13.15;;;7.32;;
51499;SDS011;39101;53.478;6.158;2023-08-20T04:54:58;17.88;;;7.57;;
51499;SDS011;39101;53.478;6.158;2023-08-20T04:57:24;13.38;;;6.22;;
51499;SDS011;39101;53.478;6.158;2023-08-20T04:59:49;15.10;;;7.20;;
51499;SDS011;39101;53.478;6.158;2023-08-20T05:02:15;11.70;;;7.22;;
51499;SDS011;39101;53.478;6.158;2023-08-20T05:04:41;16.70;;;7.07;;
51499;SDS011;39101;53.478;6.158;2023-08-20T05:07:06;12.95;;;6.65;;
51499;SDS011;39101;53.478;6.158;2023-08-20T05:09:32;13.60;;;7.75;;
51499;SDS011;39101;53.478;6.158;2023-08-20T05:11:58;16.73;;;7.88;;
51499;SDS011;39101;53.478;6.158;2023-08-20T05:14:24;13.23;;;7.35;;
51499;SDS011;39101;53.478;6.158;2023-08-20T05:16:50;14.57;;;7.45;;
51499;SDS011;39101;53.478;6.158;2023-08-20T05:19:15;17.73;;;7.68;;
51499;SDS011;39101;53.478;6.158;2023-08-20T05:21:41;12.68;;;6.90;;
51499;SDS011;39101;53.478;6.158;2023-08-20T05:24:06;11.77;;;6.85;;
51499;SDS011;39101;53.478;6.158;2023-08-20T05:26:32;18.30;;;7.07;;
51499;SDS011;39101;53.478;6.158;2023-08-20T05:28:59;16.90;;;6.78;;
51499;SDS011;39101;53.478;6.158;2023-08-20T05:31:24;15.55;;;7.40;;
51499;SDS011;39101;53.478;6.158;2023-08-20T05:33:50;18.13;;;8.25;;
51499;SDS011;39101;53.478;6.158;2023-08-20T05:36:16;13.38;;;6.75;;
51499;SDS011;39101;53.478;6.158;2023-08-20T05:38:41;17.15;;;8.00;;
51499;SDS011;39101;53.478;6.158;2023-08-20T05:41:08;19.17;;;7.53;;
51499;SDS011;39101;53.478;6.158;2023-08-20T05:43:34;16.65;;;6.80;;
51499;SDS011;39101;53.478;6.158;2023-08-20T05:46:01;15.75;;;7.15;;
51499;SDS011;39101;53.478;6.158;2023-08-20T05:48:27;12.63;;;7.93;;
51499;SDS011;39101;53.478;6.158;2023-08-20T05:50:53;17.88;;;7.25;;
51499;SDS011;39101;53.478;6.158;2023-08-20T05:53:19;18.00;;;7.25;;
51499;SDS011;39101;53.478;6.158;2023-08-20T05:55:46;14.20;;;7.68;;
51499;SDS011;39101;53.478;6.158;2023-08-20T05:58:11;16.55;;;7.07;;
51499;SDS011;39101;53.478;6.158;2023-08-20T06:00:37;14.15;;;6.55;;
51499;SDS011;39101;53.478;6.158;2023-08-20T06:03:03;11.98;;;6.75;;
51499;SDS011;39101;53.478;6.158;2023-08-20T06:05:29;15.27;;;8.00;;
51499;SDS011;39101;53.478;6.158;2023-08-20T06:07:55;15.85;;;7.15;;
51499;SDS011;39101;53.478;6.158;2023-08-20T06:10:20;13.48;;;6.80;;
51499;SDS011;39101;53.478;6.158;2023-08-20T06:12:46;15.50;;;7.32;;
51499;SDS011;39101;53.478;6.158;2023-08-20T06:15:12;19.33;;;7.25;;
51499;SDS011;39101;53.478;6.158;2023-08-20T06:17:38;15.02;;;6.97;;
51499;SDS011;39101;53.478;6.158;2023-08-20T06:20:04;15.18;;;7.28;;
51499;SDS011;39101;53.478;6.158;2023-08-20T06:22:32;13.13;;;6.82;;
51499;SDS011;39101;53.478;6.158;2023-08-20T06:24:58;13.88;;;6.55;;
51499;SDS011;39101;53.478;6.158;2023-08-20T06:27:24;14.15;;;7.10;;
51499;SDS011;39101;53.478;6.158;2023-08-20T06:29:49;17.83;;;7.80;;
51499;SDS011;39101;53.478;6.158;2023-08-20T06:32:15;13.60;;;7.18;;
51499;SDS011;39101;53.478;6.158;2023-08-20T06:34:41;16.60;;;7.43;;
51499;SDS011;39101;53.478;6.158;2023-08-20T06:37:06;18.02;;;7.32;;
51499;SDS011;39101;53.478;6.158;2023-08-20T06:39:32;17.73;;;6.53;;
51499;SDS011;39101;53.478;6.158;2023-08-20T06:41:57;14.27;;;8.07;;
51499;SDS011;39101;53.478;6.158;2023-08-20T06:44:23;19.38;;;6.50;;
51499;SDS011;39101;53.478;6.158;2023-08-20T06:46:49;17.88;;;6.60;;
51499;SDS011;39101;53.478;6.158;2023-08-20T06:49:14;19.35;;;6.75;;
51499;SDS011;39101;53.478;6.158;2023-08-20T06:51:40;15.70;;;6.63;;
51499;SDS011;39101;53.478;6.158;2023-08-20T06:54:06;20.05;;;6.68;;
51499;SDS011;39101;53.478;6.158;2023-08-20T06:56:32;16.95;;;5.57;;
51499;SDS011;39101;53.478;6.158;2023-08-20T06:58:58;17.80;;;6.30;;
51499;SDS011;39101;53.478;6.158;2023-08-20T07:01:25;19.35;;;6.93;;
51499;SDS011;39101;53.478;6.158;2023-08-20T07:03:50;16.55;;;6.10;;
51499;SDS011;39101;53.478;6.158;2023-08-20T07:06:16;20.95;;;7.03;;
51499;SDS011;39101;53.478;6.158;2023-08-20T07:08:43;16.08;;;6.82;;
51499;SDS011;39101;53.478;6.158;2023-08-20T07:11:09;19.00;;;6.50;;
51499;SDS011;39101;53.478;6.158;2023-08-20T07:13:35;14.50;;;7.13;;
51499;SDS011;39101;53.478;6.158;2023-08-20T07:16:01;13.07;;;6.32;;
51499;SDS011;39101;53.478;6.158;2023-08-20T07:18:26;14.45;;;6.97;;
51499;SDS011;39101;53.478;6.158;2023-08-20T07:20:52;16.27;;;7.05;;
51499;SDS011;39101;53.478;6.158;2023-08-20T07:23:18;14.68;;;6.28;;
51499;SDS011;39101;53.478;6.158;2023-08-20T07:25:43;19.42;;;7.32;;
51499;SDS011;39101;53.478;6.158;2023-08-20T07:28:10;14.90;;;6.07;;
51499;SDS011;39101;53.478;6.158;2023-08-20T07:30:36;14.85;;;6.20;;
51499;SDS011;39101;53.478;6.158;2023-08-20T07:33:02;18.23;;;6.28;;
51499;SDS011;39101;53.478;6.158;2023-08-20T07:35:28;15.98;;;6.18;;
51499;SDS011;39101;53.478;6.158;2023-08-20T07:37:54;15.55;;;6.35;;
51499;SDS011;39101;53.478;6.158;2023-08-20T07:40:20;19.45;;;5.78;;
51499;SDS011;39101;53.478;6.158;2023-08-20T07:42:45;15.00;;;5.68;;
51499;SDS011;39101;53.478;6.158;2023-08-20T07:45:11;16.05;;;4.75;;
51499;SDS011;39101;53.478;6.158;2023-08-20T07:47:38;13.18;;;5.90;;
51499;SDS011;39101;53.478;6.158;2023-08-20T07:50:04;18.20;;;5.15;;
51499;SDS011;39101;53.478;6.158;2023-08-20T07:52:31;18.50;;;5.43;;
51499;SDS011;39101;53.478;6.158;2023-08-20T07:54:58;19.60;;;5.82;;
51499;SDS011;39101;53.478;6.158;2023-08-20T07:57:23;15.43;;;5.00;;
51499;SDS011;39101;53.478;6.158;2023-08-20T07:59:49;17.33;;;5.22;;
51499;SDS011;39101;53.478;6.158;2023-08-20T08:02:15;18.70;;;5.55;;
51499;SDS011;39101;53.478;6.158;2023-08-20T08:04:41;13.38;;;4.22;;
51499;SDS011;39101;53.478;6.158;2023-08-20T08:07:07;16.05;;;5.55;;
51499;SDS011;39101;53.478;6.158;2023-08-20T08:09:33;19.42;;;4.53;;
51499;SDS011;39101;53.478;6.158;2023-08-20T08:11:59;19.35;;;5.00;;
51499;SDS011;39101;53.478;6.158;2023-08-20T08:14:25;16.42;;;5.10;;
51499;SDS011;39101;53.478;6.158;2023-08-20T08:16:51;17.90;;;4.95;;
51499;SDS011;39101;53.478;6.158;2023-08-20T08:19:17;16.05;;;5.45;;
51499;SDS011;39101;53.478;6.158;2023-08-20T08:21:44;14.93;;;4.13;;
51499;SDS011;39101;53.478;6.158;2023-08-20T08:24:11;18.15;;;5.40;;
51499;SDS011;39101;53.478;6.158;2023-08-20T08:26:37;17.95;;;6.85;;
51499;SDS011;39101;53.478;6.158;2023-08-20T08:29:03;14.98;;;5.00;;
51499;SDS011;39101;53.478;6.158;2023-08-20T08:31:30;25.90;;;4.80;;
51499;SDS011;39101;53.478;6.158;2023-08-20T08:33:55;11.82;;;3.40;;
51499;SDS011;39101;53.478;6.158;2023-08-20T08:36:21;16.60;;;3.50;;
51499;SDS011;39101;53.478;6.158;2023-08-20T08:38:49;12.68;;;3.58;;
51499;SDS011;39101;53.478;6.158;2023-08-20T08:41:18;12.27;;;3.30;;
51499;SDS011;39101;53.478;6.158;2023-08-20T08:43:50;12.20;;;3.83;;
51499;SDS011;39101;53.478;6.158;2023-08-20T08:46:16;14.43;;;3.40;;
51499;SDS011;39101;53.478;6.158;2023-08-20T08:48:43;19.83;;;3.88;;
51499;SDS011;39101;53.478;6.158;2023-08-20T08:51:11;16.02;;;3.78;;
51499;SDS011;39101;53.478;6.158;2023-08-20T08:53:37;15.57;;;3.88;;
51499;SDS011;39101;53.478;6.158;2023-08-20T08:56:03;20.20;;;3.95;;
51499;SDS011;39101;53.478;6.158;2023-08-20T08:58:32;14.60;;;4.07;;
51499;SDS011;39101;53.478;6.158;2023-08-20T09:00:59;16.25;;;3.67;;
51499;SDS011;39101;53.478;6.158;2023-08-20T09:03:25;14.60;;;3.42;;
51499;SDS011;39101;53.478;6.158;2023-08-20T09:06:00;15.35;;;3.22;;
51499;SDS011;39101;53.478;6.158;2023-08-20T09:08:32;19.05;;;3.30;;
51499;SDS011;39101;53.478;6.158;2023-08-20T09:10:59;18.63;;;3.90;;
51499;SDS011;39101;53.478;6.158;2023-08-20T09:13:36;15.75;;;4.75;;
51499;SDS011;39101;53.478;6.158;2023-08-20T09:16:10;13.25;;;2.88;;
51499;SDS011;39101;53.478;6.158;2023-08-20T09:18:39;12.50;;;3.45;;
51499;SDS011;39101;53.478;6.158;2023-08-20T09:21:06;15.90;;;3.50;;
51499;SDS011;39101;53.478;6.158;2023-08-20T09:23:36;14.68;;;3.47;;
51499;SDS011;39101;53.478;6.158;2023-08-20T09:26:08;16.90;;;3.97;;
51499;SDS011;39101;53.478;6.158;2023-08-20T09:28:41;16.10;;;3.25;;
51499;SDS011;39101;53.478;6.158;2023-08-20T09:31:07;15.77;;;3.30;;
51499;SDS011;39101;53.478;6.158;2023-08-20T09:33:33;17.55;;;3.42;;
51499;SDS011;39101;53.478;6.158;2023-08-20T09:35:59;17.00;;;3.42;;
51499;SDS011;39101;53.478;6.158;2023-08-20T09:38:24;9.98;;;3.10;;
51499;SDS011;39101;53.478;6.158;2023-08-20T09:40:51;14.43;;;3.38;;
51499;SDS011;39101;53.478;6.158;2023-08-20T09:43:18;18.92;;;3.60;;
51499;SDS011;39101;53.478;6.158;2023-08-20T09:45:46;15.75;;;3.47;;
51499;SDS011;39101;53.478;6.158;2023-08-20T09:48:18;12.68;;;3.03;;
51499;SDS011;39101;53.478;6.158;2023-08-20T09:50:46;11.70;;;3.10;;
51499;SDS011;39101;53.478;6.158;2023-08-20T09:53:25;14.60;;;3.15;;
51499;SDS011;39101;53.478;6.158;2023-08-20T09:56:09;15.52;;;3.67;;
51499;SDS011;39101;53.478;6.158;2023-08-20T09:58:39;16.40;;;3.35;;
51499;SDS011;39101;53.478;6.158;2023-08-20T10:01:06;12.38;;;3.00;;
51499;SDS011;39101;53.478;6.158;2023-08-20T10:03:32;14.55;;;2.88;;
51499;SDS011;39101;53.478;6.158;2023-08-20T10:05:58;10.00;;;3.78;;
51499;SDS011;39101;53.478;6.158;2023-08-20T10:08:26;13.77;;;3.53;;
51499;SDS011;39101;53.478;6.158;2023-08-20T10:10:52;10.35;;;3.15;;
51499;SDS011;39101;53.478;6.158;2023-08-20T10:13:18;12.35;;;3.47;;
51499;SDS011;39101;53.478;6.158;2023-08-20T10:15:44;11.80;;;3.65;;
51499;SDS011;39101;53.478;6.158;2023-08-20T10:18:11;13.27;;;3.33;;
51499;SDS011;39101;53.478;6.158;2023-08-20T10:20:38;15.35;;;3.83;;
51499;SDS011;39101;53.478;6.158;2023-08-20T10:23:05;15.38;;;3.47;;
51499;SDS011;39101;53.478;6.158;2023-08-20T10:25:31;12.43;;;3.10;;
51499;SDS011;39101;53.478;6.158;2023-08-20T10:28:39;15.40;;;3.60;;
51499;SDS011;39101;53.478;6.158;2023-08-20T10:33:28;9.50;;;2.70;;
51499;SDS011;39101;53.478;6.158;2023-08-20T10:35:54;11.75;;;3.53;;
51499;SDS011;39101;53.478;6.158;2023-08-20T10:38:19;13.80;;;3.17;;
51499;SDS011;39101;53.478;6.158;2023-08-20T10:40:56;12.18;;;3.05;;
51499;SDS011;39101;53.478;6.158;2023-08-20T10:48:56;12.98;;;2.40;;
51499;SDS011;39101;53.478;6.158;2023-08-20T10:51:31;11.98;;;2.42;;
51499;SDS011;39101;53.478;6.158;2023-08-20T10:56:48;14.43;;;3.40;;
51499;SDS011;39101;53.478;6.158;2023-08-20T10:59:23;15.70;;;3.28;;
51499;SDS011;39101;53.478;6.158;2023-08-20T11:01:52;11.05;;;3.55;;
51499;SDS011;39101;53.478;6.158;2023-08-20T11:04:20;12.30;;;3.10;;
51499;SDS011;39101;53.478;6.158;2023-08-20T11:06:49;15.50;;;3.22;;
51499;SDS011;39101;53.478;6.158;2023-08-20T11:09:21;13.82;;;3.55;;
51499;SDS011;39101;53.478;6.158;2023-08-20T11:11:48;19.30;;;3.60;;
51499;SDS011;39101;53.478;6.158;2023-08-20T11:14:14;16.00;;;4.28;;
51499;SDS011;39101;53.478;6.158;2023-08-20T11:16:40;12.07;;;2.97;;
51499;SDS011;39101;53.478;6.158;2023-08-20T11:19:07;14.25;;;3.33;;
51499;SDS011;39101;53.478;6.158;2023-08-20T11:21:34;16.75;;;3.38;;
51499;SDS011;39101;53.478;6.158;2023-08-20T11:24:00;12.93;;;3.08;;
51499;SDS011;39101;53.478;6.158;2023-08-20T11:26:27;14.30;;;3.88;;
51499;SDS011;39101;53.478;6.158;2023-08-20T11:28:52;18.75;;;3.35;;
51499;SDS011;39101;53.478;6.158;2023-08-20T11:31:18;16.50;;;3.13;;
51499;SDS011;39101;53.478;6.158;2023-08-20T11:33:44;15.50;;;3.28;;
51499;SDS011;39101;53.478;6.158;2023-08-20T11:36:10;17.50;;;3.80;;
51499;SDS011;39101;53.478;6.158;2023-08-20T11:38:36;17.85;;;3.75;;
51499;SDS011;39101;53.478;6.158;2023-08-20T11:41:02;9.52;;;2.90;;
51499;SDS011;39101;53.478;6.158;2023-08-20T11:43:28;12.10;;;3.53;;
51499;SDS011;39101;53.478;6.158;2023-08-20T11:45:54;17.77;;;3.97;;
51499;SDS011;39101;53.478;6.158;2023-08-20T11:48:20;13.05;;;3.53;;
51499;SDS011;39101;53.478;6.158;2023-08-20T11:50:46;15.40;;;3.90;;
51499;SDS011;39101;53.478;6.158;2023-08-20T11:53:12;12.20;;;3.58;;
51499;SDS011;39101;53.478;6.158;2023-08-20T11:55:39;13.20;;;3.92;;
51499;SDS011;39101;53.478;6.158;2023-08-20T11:58:08;14.02;;;3.03;;
51499;SDS011;39101;53.478;6.158;2023-08-20T12:03:01;13.10;;;2.92;;
51499;SDS011;39101;53.478;6.158;2023-08-20T12:05:29;14.40;;;3.05;;
51499;SDS011;39101;53.478;6.158;2023-08-20T12:07:58;11.20;;;3.42;;
51499;SDS011;39101;53.478;6.158;2023-08-20T12:10:26;15.43;;;2.80;;
51499;SDS011;39101;53.478;6.158;2023-08-20T12:12:53;11.68;;;2.58;;
51499;SDS011;39101;53.478;6.158;2023-08-20T12:15:19;11.18;;;3.70;;
51499;SDS011;39101;53.478;6.158;2023-08-20T12:20:41;13.82;;;2.97;;
51499;SDS011;39101;53.478;6.158;2023-08-20T12:23:07;12.27;;;3.70;;
51499;SDS011;39101;53.478;6.158;2023-08-20T12:25:33;16.10;;;3.78;;
51499;SDS011;39101;53.478;6.158;2023-08-20T12:28:03;13.18;;;3.05;;
51499;SDS011;39101;53.478;6.158;2023-08-20T12:32:56;18.35;;;4.05;;
51499;SDS011;39101;53.478;6.158;2023-08-20T12:35:22;12.70;;;3.28;;
51499;SDS011;39101;53.478;6.158;2023-08-20T12:37:48;11.80;;;3.13;;
51499;SDS011;39101;53.478;6.158;2023-08-20T12:40:13;14.95;;;3.95;;
51499;SDS011;39101;53.478;6.158;2023-08-20T12:42:39;14.63;;;5.43;;
51499;SDS011;39101;53.478;6.158;2023-08-20T12:45:05;12.35;;;3.47;;
51499;SDS011;39101;53.478;6.158;2023-08-20T12:47:32;16.13;;;3.35;;
51499;SDS011;39101;53.478;6.158;2023-08-20T12:49:59;12.23;;;3.03;;
51499;SDS011;39101;53.478;6.158;2023-08-20T12:52:24;12.38;;;3.20;;
51499;SDS011;39101;53.478;6.158;2023-08-20T12:54:50;16.73;;;3.75;;
51499;SDS011;39101;53.478;6.158;2023-08-20T12:57:15;16.23;;;3.20;;
51499;SDS011;39101;53.478;6.158;2023-08-20T12:59:41;11.63;;;3.25;;
51499;SDS011;39101;53.478;6.158;2023-08-20T13:02:07;16.55;;;3.47;;
51499;SDS011;39101;53.478;6.158;2023-08-20T13:04:33;9.65;;;2.70;;
51499;SDS011;39101;53.478;6.158;2023-08-20T13:06:59;13.00;;;3.45;;
51499;SDS011;39101;53.478;6.158;2023-08-20T13:09:26;9.10;;;2.50;;
51499;SDS011;39101;53.478;6.158;2023-08-20T13:11:53;15.85;;;3.03;;
51499;SDS011;39101;53.478;6.158;2023-08-20T13:14:20;15.68;;;4.07;;
51499;SDS011;39101;53.478;6.158;2023-08-20T13:16:46;21.55;;;3.80;;
51499;SDS011;39101;53.478;6.158;2023-08-20T13:19:12;12.45;;;3.15;;
51499;SDS011;39101;53.478;6.158;2023-08-20T13:21:38;14.80;;;3.95;;
51499;SDS011;39101;53.478;6.158;2023-08-20T13:24:04;13.13;;;3.22;;
51499;SDS011;39101;53.478;6.158;2023-08-20T13:26:30;15.02;;;3.80;;
51499;SDS011;39101;53.478;6.158;2023-08-20T13:28:56;10.98;;;3.13;;
51499;SDS011;39101;53.478;6.158;2023-08-20T13:31:21;17.17;;;3.45;;
51499;SDS011;39101;53.478;6.158;2023-08-20T13:33:47;10.38;;;2.65;;
51499;SDS011;39101;53.478;6.158;2023-08-20T13:36:14;12.73;;;3.05;;
51499;SDS011;39101;53.478;6.158;2023-08-20T13:38:40;15.43;;;3.63;;
51499;SDS011;39101;53.478;6.158;2023-08-20T13:41:06;13.73;;;3.50;;
51499;SDS011;39101;53.478;6.158;2023-08-20T13:43:32;12.88;;;3.00;;
51499;SDS011;39101;53.478;6.158;2023-08-20T13:45:58;13.70;;;3.22;;
51499;SDS011;39101;53.478;6.158;2023-08-20T13:48:23;11.90;;;3.95;;
51499;SDS011;39101;53.478;6.158;2023-08-20T13:50:49;12.30;;;3.40;;
51499;SDS011;39101;53.478;6.158;2023-08-20T13:53:15;14.48;;;3.53;;
51499;SDS011;39101;53.478;6.158;2023-08-20T13:55:41;14.90;;;3.60;;
51499;SDS011;39101;53.478;6.158;2023-08-20T13:58:06;12.98;;;3.25;;
51499;SDS011;39101;53.478;6.158;2023-08-20T14:00:32;15.15;;;3.13;;
51499;SDS011;39101;53.478;6.158;2023-08-20T14:02:58;17.25;;;3.78;;
51499;SDS011;39101;53.478;6.158;2023-08-20T14:05:23;20.13;;;5.88;;
51499;SDS011;39101;53.478;6.158;2023-08-20T14:07:49;16.88;;;4.72;;
51499;SDS011;39101;53.478;6.158;2023-08-20T14:10:15;17.98;;;4.15;;
51499;SDS011;39101;53.478;6.158;2023-08-20T14:12:41;15.68;;;3.40;;
51499;SDS011;39101;53.478;6.158;2023-08-20T14:15:07;13.23;;;3.72;;
51499;SDS011;39101;53.478;6.158;2023-08-20T14:17:33;12.98;;;3.20;;
51499;SDS011;39101;53.478;6.158;2023-08-20T14:19:59;14.52;;;3.90;;
51499;SDS011;39101;53.478;6.158;2023-08-20T14:22:25;19.60;;;3.75;;
51499;SDS011;39101;53.478;6.158;2023-08-20T14:24:51;12.82;;;2.63;;
51499;SDS011;39101;53.478;6.158;2023-08-20T14:27:16;13.63;;;2.92;;
51499;SDS011;39101;53.478;6.158;2023-08-20T14:29:42;15.02;;;4.00;;
51499;SDS011;39101;53.478;6.158;2023-08-20T14:32:08;10.77;;;2.75;;
51499;SDS011;39101;53.478;6.158;2023-08-20T14:34:33;12.32;;;3.17;;
51499;SDS011;39101;53.478;6.158;2023-08-20T14:36:59;14.48;;;3.28;;
51499;SDS011;39101;53.478;6.158;2023-08-20T14:39:25;11.52;;;2.63;;
51499;SDS011;39101;53.478;6.158;2023-08-20T14:41:50;13.93;;;3.33;;
51499;SDS011;39101;53.478;6.158;2023-08-20T14:44:16;12.40;;;2.72;;
51499;SDS011;39101;53.478;6.158;2023-08-20T14:46:41;9.93;;;2.90;;
51499;SDS011;39101;53.478;6.158;2023-08-20T14:49:07;13.30;;;3.63;;
51499;SDS011;39101;53.478;6.158;2023-08-20T14:51:33;10.88;;;3.35;;
51499;SDS011;39101;53.478;6.158;2023-08-20T14:53:59;12.52;;;2.60;;
51499;SDS011;39101;53.478;6.158;2023-08-20T14:56:25;7.80;;;2.22;;
51499;SDS011;39101;53.478;6.158;2023-08-20T14:58:51;11.63;;;2.67;;
51499;SDS011;39101;53.478;6.158;2023-08-20T15:01:16;12.75;;;3.15;;